Airport Name : Sivas

Other Name : Sivas

ICAO : LTAR

IATA : VAS

FAA :

Latitude : 39.813828

Longitude : 36.903497

Country : Turkey

Local Date and Time : 23 Sep 2021 14:26

 

TAF (Terminal Aerodrome Forecast)

TAF LTAR 231040Z 2312/2321 30012KT 8000 -SHRA BKN025 OVC080 TEMPO 2312/2314 4000 -TSRA FEW025CB BKN030

 

METAR (METeorological Aerodrome Report)

LTAR 231050Z 33010KT 9999 -SHRA FEW025CB SCT030 BKN080 09/06 Q1011

LTAR 230950Z 29005KT 260V320 8000 -SHRA FEW012 FEW025CB BKN080 08/07 Q1012 RETSRA

LTAR 230926Z 27014KT 5000 -TSRA SCT010 FEW025CB OVC080 07/06 Q1012 RMK RWY19 24015KT

LTAR 230850Z 27008KT 9999 FEW010 SCT035 BKN100 11/08 Q1011

LTAR 230750Z 20004KT 160V230 9999 FEW008 SCT040 BKN100 10/08 Q1011

To Charter a Jet Click here.